createdAt,value
2023-04-07T00:00:50.595Z,10.82
2023-04-07T00:03:19.512Z,9.77
2023-04-07T00:05:49.171Z,10.98
2023-04-07T00:08:17.371Z,10.68
2023-04-07T00:10:45.594Z,10.02
2023-04-07T00:13:14.040Z,10.18
2023-04-07T00:15:44.067Z,10.40
2023-04-07T00:18:12.070Z,10.93
2023-04-07T00:20:40.089Z,10.95
2023-04-07T00:23:09.325Z,10.50
2023-04-07T00:25:37.621Z,10.80
2023-04-07T00:28:05.878Z,9.65
2023-04-07T00:30:34.027Z,11.23
2023-04-07T00:33:02.110Z,10.15
2023-04-07T00:35:30.184Z,9.65
2023-04-07T00:38:02.275Z,10.88
2023-04-07T00:40:31.850Z,9.93
2023-04-07T00:42:59.760Z,10.07
2023-04-07T00:45:28.314Z,9.93
2023-04-07T00:47:59.008Z,10.18
2023-04-07T00:50:27.842Z,10.55
2023-04-07T00:52:57.022Z,9.65
2023-04-07T00:55:26.221Z,10.23
2023-04-07T00:57:57.256Z,10.27
2023-04-07T01:00:25.236Z,10.10
2023-04-07T01:03:00.742Z,9.88
2023-04-07T01:05:42.719Z,10.38
2023-04-07T01:08:16.503Z,10.02
2023-04-07T01:10:51.452Z,10.80
2023-04-07T01:13:31.381Z,9.77
2023-04-07T01:16:04.187Z,10.20
2023-04-07T01:18:34.591Z,10.88
2023-04-07T01:21:06.990Z,9.80
2023-04-07T01:24:01.884Z,11.38
2023-04-07T01:26:31.616Z,12.07
2023-04-07T01:29:26.845Z,12.25
2023-04-07T01:31:59.910Z,11.43
2023-04-07T01:36:58.104Z,11.13
2023-04-07T01:39:28.618Z,12.13
2023-04-07T01:41:58.585Z,10.65
2023-04-07T01:44:28.607Z,11.88
2023-04-07T01:46:58.621Z,11.98
2023-04-07T01:49:27.991Z,12.27
2023-04-07T01:51:56.784Z,11.98
2023-04-07T01:54:27.856Z,11.45
2023-04-07T01:56:56.702Z,12.13
2023-04-07T01:59:24.730Z,11.98
2023-04-07T02:01:55.167Z,12.10
2023-04-07T02:04:42.484Z,11.25
2023-04-07T02:07:19.293Z,11.73
2023-04-07T02:09:49.610Z,11.80
2023-04-07T02:12:20.751Z,11.50
2023-04-07T02:14:51.733Z,11.57
2023-04-07T02:17:22.712Z,11.82
2023-04-07T02:19:53.854Z,11.23
2023-04-07T02:22:22.502Z,11.77
2023-04-07T02:24:50.597Z,12.60
2023-04-07T02:27:20.678Z,11.43
2023-04-07T02:29:52.355Z,11.25
2023-04-07T02:32:20.713Z,11.05
2023-04-07T02:34:48.670Z,11.85
2023-04-07T02:37:18.217Z,12.35
2023-04-07T02:39:46.492Z,11.90
2023-04-07T02:42:15.176Z,11.80
2023-04-07T02:44:43.229Z,11.52
2023-04-07T02:47:14.366Z,13.05
2023-04-07T02:49:44.639Z,12.13
2023-04-07T02:52:13.809Z,12.15
2023-04-07T02:54:43.547Z,13.32
2023-04-07T02:57:13.711Z,13.05
2023-04-07T02:59:42.079Z,11.98
2023-04-07T03:02:11.330Z,13.65
2023-04-07T03:04:39.657Z,12.90
2023-04-07T03:07:11.614Z,13.35
2023-04-07T03:09:39.696Z,13.57
2023-04-07T03:12:09.347Z,13.02
2023-04-07T03:14:37.410Z,13.52
2023-04-07T03:17:05.898Z,13.30
2023-04-07T03:19:34.175Z,13.93
2023-04-07T03:22:02.260Z,13.93
2023-04-07T03:24:31.564Z,14.07
2023-04-07T03:26:59.774Z,13.73
2023-04-07T03:29:33.943Z,14.05
2023-04-07T03:32:01.914Z,13.93
2023-04-07T03:34:29.870Z,13.88
2023-04-07T03:37:00.164Z,13.27
2023-04-07T03:39:28.095Z,13.00
2023-04-07T03:41:58.917Z,12.65
2023-04-07T03:44:28.467Z,13.23
2023-04-07T03:46:56.644Z,12.95
2023-04-07T03:49:24.830Z,12.82
2023-04-07T03:51:54.049Z,13.00
2023-04-07T03:54:23.297Z,12.77
2023-04-07T03:56:51.549Z,14.35
2023-04-07T03:59:19.530Z,13.07
2023-04-07T04:01:49.462Z,13.52
2023-04-07T04:04:17.980Z,13.95
2023-04-07T04:06:46.595Z,13.25
2023-04-07T04:09:14.751Z,13.13
2023-04-07T04:11:42.714Z,14.25
2023-04-07T04:14:12.335Z,13.40
2023-04-07T04:16:40.392Z,13.98
2023-04-07T04:19:11.016Z,14.43
2023-04-07T04:21:39.295Z,13.80
2023-04-07T04:24:07.885Z,13.02
2023-04-07T04:26:36.120Z,13.43
2023-04-07T04:29:04.258Z,13.43
2023-04-07T04:31:32.580Z,12.68
2023-04-07T04:34:00.473Z,14.20
2023-04-07T04:36:30.327Z,13.10
2023-04-07T04:38:58.484Z,13.13
2023-04-07T04:41:27.370Z,12.93
2023-04-07T04:43:55.290Z,12.25
2023-04-07T04:46:23.308Z,12.88
2023-04-07T04:48:54.015Z,13.27
2023-04-07T04:51:24.791Z,13.48
2023-04-07T04:53:54.976Z,12.63
2023-04-07T04:56:23.374Z,13.23
2023-04-07T04:58:52.564Z,13.45
2023-04-07T05:01:20.594Z,12.57
2023-04-07T05:03:48.733Z,13.48
2023-04-07T05:06:17.444Z,13.13
2023-04-07T05:08:45.406Z,13.40
2023-04-07T05:11:18.459Z,13.70
2023-04-07T05:16:14.562Z,12.68
2023-04-07T05:18:43.169Z,13.57
2023-04-07T05:21:11.352Z,13.85
2023-04-07T05:23:39.616Z,13.45
2023-04-07T05:26:07.765Z,13.48
2023-04-07T05:28:37.908Z,13.15
2023-04-07T05:31:07.679Z,11.93
2023-04-07T05:33:36.108Z,12.23
2023-04-07T05:36:04.165Z,12.77
2023-04-07T05:38:34.456Z,13.18
2023-04-07T05:41:02.900Z,13.07
2023-04-07T05:43:31.500Z,13.40
2023-04-07T05:46:01.154Z,14.15
2023-04-07T05:48:29.379Z,13.15
2023-04-07T05:50:57.838Z,13.52
2023-04-07T05:53:26.067Z,13.23
2023-04-07T05:55:54.039Z,12.88
2023-04-07T05:58:22.254Z,14.20
2023-04-07T06:00:50.107Z,13.07
2023-04-07T06:03:19.721Z,14.50
2023-04-07T06:05:47.974Z,12.07
2023-04-07T06:08:17.714Z,13.38
2023-04-07T06:10:46.662Z,12.82
2023-04-07T06:13:14.679Z,12.82
2023-04-07T06:15:43.072Z,12.63
2023-04-07T06:18:11.389Z,12.73
2023-04-07T06:20:40.682Z,11.60
2023-04-07T06:23:08.739Z,11.88
2023-04-07T06:25:38.092Z,11.75
2023-04-07T06:28:07.203Z,12.48
2023-04-07T06:30:35.990Z,12.43
2023-04-07T06:33:04.211Z,12.70
2023-04-07T06:35:32.211Z,12.05
2023-04-07T06:38:02.340Z,11.68
2023-04-07T06:40:36.278Z,11.15
2023-04-07T06:43:05.391Z,11.02
2023-04-07T06:45:33.293Z,11.48
2023-04-07T06:48:01.313Z,11.38
2023-04-07T06:50:29.373Z,10.30
2023-04-07T06:52:57.650Z,11.63
2023-04-07T06:55:27.699Z,10.98
2023-04-07T06:57:55.824Z,11.43
2023-04-07T07:00:24.363Z,9.05
2023-04-07T07:02:52.676Z,9.15
2023-04-07T07:05:21.701Z,9.02
2023-04-07T07:07:50.274Z,9.20
2023-04-07T07:10:20.363Z,8.18
2023-04-07T07:12:49.713Z,8.98
2023-04-07T07:15:20.677Z,7.82
2023-04-07T07:17:49.860Z,7.85
2023-04-07T07:20:17.926Z,7.50
2023-04-07T07:22:46.325Z,7.65
2023-04-07T07:25:18.029Z,7.07
2023-04-07T07:27:46.302Z,7.05
2023-04-07T07:30:16.026Z,7.80
2023-04-07T07:32:44.598Z,7.25
2023-04-07T07:35:12.881Z,8.00
2023-04-07T07:37:41.058Z,7.13
2023-04-07T07:40:09.272Z,7.32
2023-04-07T07:42:41.074Z,6.80
2023-04-07T07:45:09.953Z,5.88
2023-04-07T07:47:39.611Z,5.50
2023-04-07T07:50:08.105Z,5.30
2023-04-07T07:52:38.701Z,5.32
2023-04-07T07:55:07.442Z,5.68
2023-04-07T07:57:36.266Z,4.78
2023-04-07T08:00:04.727Z,5.13
2023-04-07T08:02:34.346Z,4.97
2023-04-07T08:05:03.874Z,5.45
2023-04-07T08:07:31.942Z,6.32
2023-04-07T08:09:59.985Z,5.38
2023-04-07T08:12:30.240Z,5.53
2023-04-07T08:14:58.169Z,5.15
2023-04-07T08:17:26.392Z,5.32
2023-04-07T08:19:54.393Z,5.32
2023-04-07T08:22:23.890Z,5.68
2023-04-07T08:24:51.933Z,5.07
2023-04-07T08:27:20.861Z,4.22
2023-04-07T08:29:51.032Z,4.15
2023-04-07T08:32:19.236Z,5.13
2023-04-07T08:34:47.745Z,4.97
2023-04-07T08:37:15.643Z,5.22
2023-04-07T08:39:44.948Z,5.65
2023-04-07T08:42:14.311Z,5.75
2023-04-07T08:44:42.844Z,4.65
2023-04-07T08:47:11.702Z,5.88
2023-04-07T08:49:44.959Z,5.32
2023-04-07T08:52:15.591Z,4.72
2023-04-07T08:54:45.302Z,4.28
2023-04-07T08:57:14.112Z,4.63
2023-04-07T08:59:45.354Z,3.97
2023-04-07T09:02:15.624Z,4.43
2023-04-07T09:04:46.131Z,4.28
2023-04-07T09:07:14.420Z,4.50
2023-04-07T09:09:42.300Z,4.35
2023-04-07T09:12:11.666Z,4.10
2023-04-07T09:14:39.831Z,4.55
2023-04-07T09:17:07.847Z,4.60
2023-04-07T09:19:36.300Z,4.82
2023-04-07T09:22:04.980Z,3.95
2023-04-07T09:24:35.223Z,3.97
2023-04-07T09:27:17.500Z,4.05
2023-04-07T09:29:47.672Z,4.40
2023-04-07T09:32:38.583Z,4.30
2023-04-07T09:35:10.070Z,4.60
2023-04-07T09:37:38.393Z,5.80
2023-04-07T09:40:07.523Z,5.28
2023-04-07T09:42:39.541Z,5.35
2023-04-07T09:45:08.744Z,5.78
2023-04-07T09:47:38.298Z,5.65
2023-04-07T09:50:08.829Z,4.72
2023-04-07T09:52:53.349Z,3.90
2023-04-07T09:55:25.057Z,2.95
2023-04-07T09:57:56.616Z,3.38
2023-04-07T10:00:25.727Z,3.42
2023-04-07T10:02:54.514Z,3.95
2023-04-07T10:05:23.119Z,2.38
2023-04-07T10:07:51.529Z,2.60
2023-04-07T10:10:19.512Z,2.85
2023-04-07T10:12:48.904Z,2.83
2023-04-07T10:15:18.622Z,2.42
2023-04-07T10:17:49.743Z,2.28
2023-04-07T10:20:23.227Z,2.33
2023-04-07T10:22:54.247Z,2.65
2023-04-07T10:25:25.567Z,2.28
2023-04-07T10:28:04.866Z,2.08
2023-04-07T10:30:37.455Z,2.42
2023-04-07T10:33:05.985Z,1.92
2023-04-07T10:36:05.507Z,2.15
2023-04-07T10:38:33.693Z,2.40
2023-04-07T10:41:01.700Z,2.17
2023-04-07T10:43:40.729Z,1.90
2023-04-07T10:46:10.042Z,2.00
2023-04-07T10:48:38.669Z,1.73
2023-04-07T10:51:17.716Z,1.48
2023-04-07T10:54:20.523Z,1.30
2023-04-07T10:57:14.094Z,1.60
2023-04-07T11:02:35.558Z,1.43
2023-04-07T11:05:04.884Z,1.13
2023-04-07T11:07:51.081Z,1.05
2023-04-07T11:10:22.058Z,1.60
2023-04-07T11:13:05.294Z,1.90
2023-04-07T11:15:36.602Z,1.92
2023-04-07T11:18:15.921Z,1.67
2023-04-07T11:20:46.303Z,1.58
2023-04-07T11:23:15.482Z,1.45
2023-04-07T11:25:45.286Z,1.58
2023-04-07T11:28:14.497Z,1.33
2023-04-07T11:30:49.692Z,1.27
2023-04-07T11:33:21.407Z,1.10
2023-04-07T11:35:55.634Z,1.50
2023-04-07T11:38:25.818Z,2.05
2023-04-07T11:40:54.311Z,1.55
2023-04-07T11:43:24.666Z,1.80
2023-04-07T11:46:08.143Z,1.80
2023-04-07T11:48:38.523Z,1.55
2023-04-07T11:51:07.749Z,2.42
2023-04-07T11:53:38.534Z,2.95
2023-04-07T11:56:10.064Z,3.10
2023-04-07T11:58:38.778Z,1.65
2023-04-07T12:01:09.072Z,1.42
2023-04-07T12:03:39.374Z,1.75
2023-04-07T12:06:11.230Z,2.40
2023-04-07T12:08:43.208Z,1.70
2023-04-07T12:11:11.640Z,1.58
2023-04-07T12:13:39.897Z,1.10
2023-04-07T12:16:08.110Z,3.40
2023-04-07T12:18:36.561Z,3.72
2023-04-07T12:21:06.865Z,2.25
2023-04-07T12:23:36.132Z,5.32
2023-04-07T12:26:04.142Z,6.00
2023-04-07T12:28:32.269Z,4.78
2023-04-07T12:31:00.551Z,4.32
2023-04-07T12:33:29.285Z,2.50
2023-04-07T12:35:58.064Z,2.97
2023-04-07T12:38:27.592Z,1.77
2023-04-07T12:40:55.734Z,1.02
2023-04-07T12:43:29.290Z,1.15
2023-04-07T12:45:57.266Z,1.38
2023-04-07T12:48:26.791Z,1.33
2023-04-07T12:50:55.703Z,1.30
2023-04-07T12:53:23.666Z,1.50
2023-04-07T12:55:53.156Z,1.30
2023-04-07T12:58:21.200Z,1.00
2023-04-07T13:00:49.388Z,1.00
2023-04-07T13:03:17.606Z,1.13
2023-04-07T13:05:46.161Z,0.80
2023-04-07T13:08:14.125Z,0.90
2023-04-07T13:10:42.491Z,1.98
2023-04-07T13:13:11.725Z,2.10
2023-04-07T13:15:41.995Z,1.38
2023-04-07T13:18:10.849Z,0.90
2023-04-07T13:20:38.946Z,1.08
2023-04-07T13:23:09.844Z,1.20
2023-04-07T13:25:39.265Z,1.25
2023-04-07T13:28:09.277Z,1.38
2023-04-07T13:30:39.301Z,1.92
2023-04-07T13:33:07.372Z,1.40
2023-04-07T13:35:36.524Z,1.45
2023-04-07T13:38:04.964Z,1.48
2023-04-07T13:40:33.979Z,1.10
2023-04-07T13:43:02.802Z,1.35
2023-04-07T13:45:31.382Z,1.10
2023-04-07T13:48:00.920Z,1.50
2023-04-07T13:50:29.120Z,1.92
2023-04-07T13:52:57.586Z,1.90
2023-04-07T13:55:25.666Z,1.80
2023-04-07T13:57:54.858Z,1.70
2023-04-07T14:00:25.381Z,1.70
2023-04-07T14:02:53.783Z,1.83
2023-04-07T14:05:23.982Z,1.98
2023-04-07T14:07:52.520Z,1.98
2023-04-07T14:10:21.139Z,1.85
2023-04-07T14:12:50.679Z,1.50
2023-04-07T14:15:19.343Z,1.02
2023-04-07T14:17:49.634Z,0.75
2023-04-07T14:20:17.695Z,1.20
2023-04-07T14:22:50.061Z,1.50
2023-04-07T14:25:19.184Z,2.17
2023-04-07T14:27:48.746Z,2.47
2023-04-07T14:30:17.204Z,2.90
2023-04-07T14:32:45.275Z,2.28
2023-04-07T14:35:13.735Z,2.03
2023-04-07T14:37:41.824Z,2.40
2023-04-07T14:40:13.875Z,2.05
2023-04-07T14:42:41.981Z,2.50
2023-04-07T14:45:10.917Z,2.17
2023-04-07T14:47:40.331Z,2.47
2023-04-07T14:50:08.733Z,2.22
2023-04-07T14:52:38.200Z,2.53
2023-04-07T14:55:07.330Z,3.40
2023-04-07T14:57:37.219Z,3.47
2023-04-07T15:00:07.511Z,2.97
2023-04-07T15:02:36.569Z,2.85
2023-04-07T15:05:05.347Z,3.13
2023-04-07T15:07:33.489Z,3.53
2023-04-07T15:10:04.104Z,3.05
2023-04-07T15:12:33.679Z,3.50
2023-04-07T15:15:06.472Z,3.80
2023-04-07T15:17:43.845Z,3.33
2023-04-07T15:20:13.631Z,3.50
2023-04-07T15:22:42.348Z,3.22
2023-04-07T15:25:10.576Z,2.88
2023-04-07T15:27:38.559Z,3.00
2023-04-07T15:30:09.420Z,3.35
2023-04-07T15:32:38.343Z,3.30
2023-04-07T15:35:08.609Z,3.55
2023-04-07T15:37:36.578Z,3.88
2023-04-07T15:40:07.118Z,4.25
2023-04-07T15:42:41.798Z,3.35
2023-04-07T15:45:12.366Z,3.58
2023-04-07T15:47:40.430Z,3.55
2023-04-07T15:50:10.190Z,3.60
2023-04-07T15:52:38.637Z,4.05
2023-04-07T15:55:08.460Z,4.35
2023-04-07T15:57:36.925Z,3.53
2023-04-07T16:00:05.695Z,3.70
2023-04-07T16:02:38.307Z,3.08
2023-04-07T16:05:08.316Z,2.38
2023-04-07T16:07:36.309Z,2.67
2023-04-07T16:10:08.111Z,3.03
2023-04-07T16:12:37.879Z,3.58
2023-04-07T16:15:07.969Z,3.67
2023-04-07T16:17:37.681Z,3.35
2023-04-07T16:20:10.020Z,3.40
2023-04-07T16:22:38.484Z,3.22
2023-04-07T16:25:08.705Z,3.00
2023-04-07T16:27:37.714Z,2.90
2023-04-07T16:30:07.230Z,2.63
2023-04-07T16:32:36.899Z,3.00
2023-04-07T16:35:05.404Z,2.80
2023-04-07T16:37:34.432Z,2.50
2023-04-07T16:40:02.418Z,3.42
2023-04-07T16:42:34.249Z,3.65
2023-04-07T16:45:02.746Z,3.08
2023-04-07T16:47:32.596Z,3.03
2023-04-07T16:50:05.967Z,3.30
2023-04-07T16:52:35.726Z,4.15
2023-04-07T16:55:04.327Z,4.20
2023-04-07T16:57:34.735Z,3.13
2023-04-07T17:00:04.147Z,3.22
2023-04-07T17:02:33.379Z,2.58
2023-04-07T17:05:02.798Z,3.08
2023-04-07T17:07:30.744Z,3.00
2023-04-07T17:09:58.940Z,2.95
2023-04-07T17:12:30.309Z,2.60
2023-04-07T17:14:58.440Z,2.90
2023-04-07T17:17:34.334Z,2.88
2023-04-07T17:20:06.114Z,2.53
2023-04-07T17:22:35.183Z,2.60
2023-04-07T17:25:05.009Z,2.90
2023-04-07T17:27:33.632Z,2.80
2023-04-07T17:30:02.071Z,2.47
2023-04-07T17:32:30.371Z,2.70
2023-04-07T17:34:59.188Z,3.38
2023-04-07T17:37:29.308Z,3.60
2023-04-07T17:39:57.628Z,2.67
2023-04-07T17:42:26.483Z,2.92
2023-04-07T17:44:55.930Z,2.53
2023-04-07T17:47:24.248Z,3.17
2023-04-07T17:49:54.912Z,3.22
2023-04-07T17:52:25.518Z,2.78
2023-04-07T17:54:55.584Z,2.92
2023-04-07T17:57:26.168Z,3.03
2023-04-07T17:59:54.159Z,2.78
2023-04-07T18:02:22.990Z,2.40
2023-04-07T18:04:51.471Z,2.67
2023-04-07T18:07:24.535Z,2.25
2023-04-07T18:09:56.395Z,2.30
2023-04-07T18:12:24.571Z,2.13
2023-04-07T18:14:53.439Z,2.10
2023-04-07T18:17:21.417Z,2.22
2023-04-07T18:19:52.958Z,1.98
2023-04-07T18:22:21.531Z,2.47
2023-04-07T18:24:51.135Z,2.78
2023-04-07T18:27:23.875Z,4.60
2023-04-07T18:29:52.558Z,3.90
2023-04-07T18:32:21.100Z,3.05
2023-04-07T18:34:49.129Z,2.47
2023-04-07T18:37:17.102Z,2.80
2023-04-07T18:39:46.433Z,2.40
2023-04-07T18:42:14.789Z,2.45
2023-04-07T18:44:44.764Z,2.20
2023-04-07T18:47:13.098Z,2.00
2023-04-07T18:49:42.795Z,1.92
2023-04-07T18:52:12.144Z,2.17
2023-04-07T18:54:40.503Z,2.60
2023-04-07T18:57:09.685Z,3.13
2023-04-07T18:59:39.189Z,2.70
2023-04-07T19:02:09.502Z,2.53
2023-04-07T19:04:37.606Z,2.20
2023-04-07T19:07:08.013Z,1.92
2023-04-07T19:09:40.595Z,1.92
2023-04-07T19:12:09.347Z,2.20
2023-04-07T19:14:37.311Z,2.35
2023-04-07T19:17:06.131Z,2.38
2023-04-07T19:19:38.285Z,2.75
2023-04-07T19:22:08.202Z,3.10
2023-04-07T19:24:36.874Z,5.63
2023-04-07T19:27:05.763Z,2.90
2023-04-07T19:29:35.530Z,3.28
2023-04-07T19:32:03.871Z,2.60
2023-04-07T19:34:32.451Z,2.60
2023-04-07T19:37:01.804Z,2.70
2023-04-07T19:39:33.159Z,2.95
2023-04-07T19:42:00.976Z,2.63
2023-04-07T19:44:29.268Z,2.50
2023-04-07T19:46:58.840Z,2.88
2023-04-07T19:49:26.742Z,3.22
2023-04-07T19:51:55.437Z,3.22
2023-04-07T19:54:25.048Z,4.95
2023-04-07T19:56:53.297Z,3.55
2023-04-07T19:59:21.980Z,5.68
2023-04-07T20:01:50.659Z,5.57
2023-04-07T20:04:21.562Z,4.22
2023-04-07T20:06:49.774Z,3.90
2023-04-07T20:09:20.467Z,4.05
2023-04-07T20:11:53.821Z,4.10
2023-04-07T20:14:22.445Z,4.03
2023-04-07T20:16:50.802Z,5.60
2023-04-07T20:19:21.092Z,4.60
2023-04-07T20:21:50.803Z,4.82
2023-04-07T20:24:21.956Z,4.60
2023-04-07T20:26:52.226Z,4.95
2023-04-07T20:29:22.337Z,4.38
2023-04-07T20:31:50.668Z,4.10
2023-04-07T20:34:18.930Z,4.43
2023-04-07T20:36:50.060Z,3.70
2023-04-07T20:39:18.160Z,4.18
2023-04-07T20:41:46.980Z,4.00
2023-04-07T20:44:20.003Z,4.25
2023-04-07T20:49:19.257Z,4.03
2023-04-07T20:51:47.514Z,4.35
2023-04-07T20:54:15.640Z,4.22
2023-04-07T20:56:44.681Z,3.95
2023-04-07T20:59:12.646Z,4.78
2023-04-07T21:01:42.181Z,4.18
2023-04-07T21:04:13.559Z,4.70
2023-04-07T21:06:42.616Z,4.38
2023-04-07T21:09:13.528Z,4.70
2023-04-07T21:11:41.608Z,4.38
2023-04-07T21:14:10.442Z,4.07
2023-04-07T21:16:40.447Z,4.65
2023-04-07T21:19:11.107Z,4.80
2023-04-07T21:21:39.040Z,5.25
2023-04-07T21:24:07.324Z,4.28
2023-04-07T21:26:38.120Z,4.93
2023-04-07T21:29:06.551Z,4.85
2023-04-07T21:31:34.699Z,4.70
2023-04-07T21:34:03.582Z,4.80
2023-04-07T21:36:33.261Z,4.72
2023-04-07T21:39:02.285Z,4.68
2023-04-07T21:41:30.351Z,4.57
2023-04-07T21:44:00.900Z,4.60
2023-04-07T21:46:29.533Z,4.97
2023-04-07T21:48:58.475Z,5.15
2023-04-07T21:51:27.662Z,4.80
2023-04-07T21:53:56.940Z,5.07
2023-04-07T21:56:29.048Z,5.32
2023-04-07T21:58:59.397Z,5.60
2023-04-07T22:01:30.183Z,5.82
2023-04-07T22:03:58.921Z,5.57
2023-04-07T22:06:26.958Z,5.57
2023-04-07T22:09:01.640Z,5.45
2023-04-07T22:11:30.798Z,5.63
2023-04-07T22:14:00.129Z,6.15
2023-04-07T22:16:30.461Z,5.82
2023-04-07T22:18:58.835Z,6.38
2023-04-07T22:21:27.663Z,6.70
2023-04-07T22:23:58.021Z,6.55
2023-04-07T22:26:26.703Z,6.25
2023-04-07T22:28:54.664Z,7.00
2023-04-07T22:31:22.837Z,6.95
2023-04-07T22:33:53.894Z,9.18
2023-04-07T22:36:23.970Z,8.07
2023-04-07T22:38:52.173Z,8.05
2023-04-07T22:41:26.934Z,7.28
2023-04-07T22:43:58.062Z,8.48
2023-04-07T22:46:26.759Z,7.07
2023-04-07T22:48:54.682Z,8.55
2023-04-07T22:51:22.886Z,7.90
2023-04-07T22:53:51.119Z,8.57
2023-04-07T22:56:19.338Z,7.63
2023-04-07T22:58:52.242Z,9.77
2023-04-07T23:01:20.525Z,8.68
2023-04-07T23:03:49.119Z,9.43
2023-04-07T23:06:17.383Z,9.43
2023-04-07T23:08:47.734Z,8.30
2023-04-07T23:11:19.113Z,8.80
2023-04-07T23:13:49.336Z,8.50
2023-04-07T23:16:17.719Z,9.77
2023-04-07T23:18:46.026Z,9.20
2023-04-07T23:21:14.944Z,8.80
2023-04-07T23:23:44.473Z,8.68
2023-04-07T23:26:16.498Z,8.55
2023-04-07T23:28:44.504Z,9.82
2023-04-07T23:31:14.019Z,8.68
2023-04-07T23:33:44.132Z,9.35
2023-04-07T23:36:12.408Z,9.50
2023-04-07T23:38:42.160Z,9.93
2023-04-07T23:41:12.852Z,9.73
2023-04-07T23:43:41.030Z,9.30
2023-04-07T23:46:10.754Z,9.15
2023-04-07T23:48:42.305Z,10.07
2023-04-07T23:51:10.933Z,10.20
2023-04-07T23:53:39.559Z,9.75
2023-04-07T23:56:07.959Z,8.57
2023-04-07T23:58:38.125Z,9.70
